Time,TemperatureF,DewpointF,PressureIn,WindDirection,WindDirectionDegrees,WindSpeedMPH,WindSpeedGustMPH,Humidity,HourlyPrecipIn,Conditions,Clouds,dailyrainin,SoftwareType,DateUTC
2013-07-02 00:11:00,69.0,67.0,-100.00,West,269,0.0,0.0,93,0.00,,,-99.99,,2013-07-02 05:11:00,
2013-07-02 00:22:00,69.0,67.0,-100.00,West,269,0.0,0.0,93,0.00,,,-99.99,,2013-07-02 05:22:00,
2013-07-02 00:32:00,69.0,67.0,-100.00,West,269,0.0,0.0,93,0.00,,,-99.99,,2013-07-02 05:32:00,
2013-07-02 00:43:00,69.0,67.0,-100.00,West,269,0.0,0.0,93,0.00,,,-99.99,,2013-07-02 05:43:00,
2013-07-02 01:12:00,67.0,65.0,-100.00,WNW,301,0.0,0.0,94,0.00,,,-99.99,,2013-07-02 06:12:00,
2013-07-02 01:23:00,67.0,65.0,-100.00,WNW,301,0.0,0.0,94,0.00,,,-99.99,,2013-07-02 06:23:00,
2013-07-02 01:34:00,67.0,65.0,-100.00,WNW,301,0.0,0.0,94,0.00,,,-99.99,,2013-07-02 06:34:00,
2013-07-02 01:43:00,67.0,65.0,-100.00,WNW,301,0.0,0.0,94,0.00,,,-99.99,,2013-07-02 06:43:00,
2013-07-02 02:12:00,66.0,64.0,-100.00,WNW,287,0.0,2.0,94,0.00,,,0.00,,2013-07-02 07:12:00,
2013-07-02 02:22:00,66.0,64.0,-100.00,WNW,287,0.0,2.0,94,0.00,,,0.00,,2013-07-02 07:22:00,
2013-07-02 02:34:00,66.0,64.0,-100.00,WNW,287,0.0,2.0,94,0.00,,,0.00,,2013-07-02 07:34:00,
2013-07-02 02:44:00,66.0,64.0,-100.00,WNW,287,0.0,2.0,94,0.00,,,0.00,,2013-07-02 07:44:00,
2013-07-02 03:12:00,66.0,65.0,-100.00,WNW,285,0.0,0.0,95,0.00,,,0.00,,2013-07-02 08:12:00,
2013-07-02 03:22:00,66.0,65.0,-100.00,WNW,285,0.0,0.0,95,0.00,,,0.00,,2013-07-02 08:22:00,
2013-07-02 03:33:00,66.0,65.0,-100.00,WNW,285,0.0,0.0,95,0.00,,,0.00,,2013-07-02 08:33:00,
2013-07-02 03:44:00,66.0,65.0,-100.00,WNW,285,0.0,0.0,95,0.00,,,0.00,,2013-07-02 08:44:00,
2013-07-02 04:11:00,65.0,64.0,-100.00,NW,307,0.0,0.0,96,0.00,,,0.00,,2013-07-02 09:11:00,
2013-07-02 04:23:00,65.0,64.0,-100.00,NW,307,0.0,0.0,96,0.00,,,0.00,,2013-07-02 09:23:00,
2013-07-02 04:33:00,65.0,64.0,-100.00,NW,307,0.0,0.0,96,0.00,,,0.00,,2013-07-02 09:33:00,
2013-07-02 04:43:00,65.0,64.0,-100.00,NW,307,0.0,0.0,96,0.00,,,0.00,,2013-07-02 09:43:00,
2013-07-02 05:11:00,64.0,63.0,-100.00,NNW,337,0.0,0.0,96,0.00,,,0.00,,2013-07-02 10:11:00,
2013-07-02 05:22:00,64.0,63.0,-100.00,NNW,337,0.0,0.0,96,0.00,,,0.00,,2013-07-02 10:22:00,
2013-07-02 05:33:00,64.0,63.0,-100.00,NNW,337,0.0,0.0,96,0.00,,,0.00,,2013-07-02 10:33:00,
2013-07-02 05:44:00,64.0,63.0,-100.00,NNW,337,0.0,0.0,96,0.00,,,0.00,,2013-07-02 10:44:00,
2013-07-02 06:11:00,64.0,63.0,-100.00,NNW,335,0.0,0.0,96,0.00,,,0.00,,2013-07-02 11:11:00,
2013-07-02 06:22:00,64.0,63.0,-100.00,NNW,335,0.0,0.0,96,0.00,,,0.00,,2013-07-02 11:22:00,
2013-07-02 06:33:00,64.0,63.0,-100.00,NNW,335,0.0,0.0,96,0.00,,,0.00,,2013-07-02 11:33:00,
2013-07-02 06:42:00,64.0,63.0,-100.00,NNW,335,0.0,0.0,96,0.00,,,0.00,,2013-07-02 11:42:00,
2013-07-02 07:11:00,64.0,63.0,-100.00,NW,321,0.0,2.0,96,0.00,,,0.00,,2013-07-02 12:11:00,
2013-07-02 07:23:00,64.0,63.0,-100.00,NW,321,0.0,2.0,96,0.00,,,0.00,,2013-07-02 12:23:00,
2013-07-02 07:33:00,64.0,63.0,-100.00,NW,321,0.0,2.0,96,0.00,,,0.00,,2013-07-02 12:33:00,
2013-07-02 07:43:00,64.0,63.0,-100.00,NW,321,0.0,2.0,96,0.00,,,0.00,,2013-07-02 12:43:00,
2013-07-02 08:11:00,70.0,67.0,-100.00,NW,308,0.0,0.0,91,0.00,,,0.00,,2013-07-02 13:11:00,
2013-07-02 08:22:00,70.0,67.0,-100.00,NW,308,0.0,0.0,91,0.00,,,0.00,,2013-07-02 13:22:00,
2013-07-02 08:34:00,70.0,67.0,-100.00,NW,308,0.0,0.0,91,0.00,,,0.00,,2013-07-02 13:34:00,
2013-07-02 08:43:00,70.0,67.0,-100.00,NW,308,0.0,0.0,91,0.00,,,0.00,,2013-07-02 13:43:00,
2013-07-02 09:11:00,78.0,66.0,-100.00,ENE,74,3.0,4.0,67,0.00,,,0.00,,2013-07-02 14:11:00,
2013-07-02 09:22:00,78.0,66.0,-100.00,ENE,74,3.0,4.0,67,0.00,,,0.00,,2013-07-02 14:22:00,
2013-07-02 09:33:00,78.0,66.0,-100.00,ENE,74,3.0,4.0,67,0.00,,,0.00,,2013-07-02 14:33:00,
2013-07-02 09:43:00,78.0,66.0,-100.00,ENE,74,3.0,4.0,67,0.00,,,0.00,,2013-07-02 14:43:00,
2013-07-02 10:11:00,81.0,65.0,-100.00,East,85,4.0,6.0,59,0.00,,,0.00,,2013-07-02 15:11:00,
2013-07-02 10:22:00,81.0,65.0,-100.00,East,85,4.0,6.0,59,0.00,,,0.00,,2013-07-02 15:22:00,
2013-07-02 10:33:00,81.0,65.0,-100.00,East,85,4.0,6.0,59,0.00,,,0.00,,2013-07-02 15:33:00,
2013-07-02 10:44:00,81.0,65.0,-100.00,East,85,4.0,6.0,59,0.00,,,0.00,,2013-07-02 15:44:00,
2013-07-02 11:12:00,83.0,64.0,-100.00,ENE,76,5.0,9.0,53,0.00,,,0.00,,2013-07-02 16:12:00,
2013-07-02 11:22:00,83.0,64.0,-100.00,ENE,76,5.0,9.0,53,0.00,,,0.00,,2013-07-02 16:22:00,
2013-07-02 11:33:00,83.0,64.0,-100.00,ENE,76,5.0,9.0,53,0.00,,,0.00,,2013-07-02 16:33:00,
2013-07-02 11:43:00,83.0,64.0,-100.00,ENE,76,5.0,9.0,53,0.00,,,0.00,,2013-07-02 16:43:00,
2013-07-02 12:12:00,85.0,62.0,-100.00,North,0,4.0,8.0,46,0.00,,,0.00,,2013-07-02 17:12:00,
2013-07-02 12:22:00,85.0,62.0,-100.00,North,0,4.0,8.0,46,0.00,,,0.00,,2013-07-02 17:22:00,
2013-07-02 12:33:00,85.0,62.0,-100.00,North,0,4.0,8.0,46,0.00,,,0.00,,2013-07-02 17:33:00,
2013-07-02 12:43:00,85.0,62.0,-100.00,North,0,4.0,8.0,46,0.00,,,0.00,,2013-07-02 17:43:00,
2013-07-02 13:12:00,86.0,62.0,-100.00,NNE,13,6.0,12.0,44,0.00,,,-99.99,,2013-07-02 18:12:00,
2013-07-02 13:23:00,86.0,62.0,-100.00,NNE,13,6.0,12.0,44,0.00,,,-99.99,,2013-07-02 18:23:00,
2013-07-02 13:34:00,86.0,62.0,-100.00,NNE,13,6.0,12.0,44,0.00,,,-99.99,,2013-07-02 18:34:00,
2013-07-02 13:43:00,86.0,62.0,-100.00,NNE,13,6.0,12.0,44,0.00,,,-99.99,,2013-07-02 18:43:00,
2013-07-02 14:12:00,88.0,60.0,-100.00,NNE,30,6.0,10.0,39,0.00,,,0.00,,2013-07-02 19:12:00,
2013-07-02 14:22:00,88.0,60.0,-100.00,NNE,30,6.0,10.0,39,0.00,,,0.00,,2013-07-02 19:22:00,
2013-07-02 14:34:00,88.0,60.0,-100.00,NNE,30,6.0,10.0,39,0.00,,,0.00,,2013-07-02 19:34:00,
2013-07-02 14:43:00,88.0,60.0,-100.00,NNE,30,6.0,10.0,39,0.00,,,0.00,,2013-07-02 19:43:00,
2013-07-02 15:11:00,88.0,58.0,-100.00,NNE,17,5.0,10.0,37,0.00,,,0.00,,2013-07-02 20:11:00,
2013-07-02 15:22:00,88.0,58.0,-100.00,NNE,17,5.0,10.0,37,0.00,,,0.00,,2013-07-02 20:22:00,
2013-07-02 15:33:00,88.0,58.0,-100.00,NNE,17,5.0,10.0,37,0.00,,,0.00,,2013-07-02 20:33:00,
2013-07-02 15:43:00,88.0,58.0,-100.00,NNE,17,5.0,10.0,37,0.00,,,0.00,,2013-07-02 20:43:00,
2013-07-02 16:11:00,87.0,59.0,-100.00,NNE,27,4.0,11.0,39,0.00,,,0.00,,2013-07-02 21:11:00,
2013-07-02 16:22:00,87.0,59.0,-100.00,NNE,27,4.0,11.0,39,0.00,,,0.00,,2013-07-02 21:22:00,
2013-07-02 16:33:00,87.0,59.0,-100.00,NNE,27,4.0,11.0,39,0.00,,,0.00,,2013-07-02 21:33:00,
2013-07-02 16:44:00,87.0,59.0,-100.00,NNE,27,4.0,11.0,39,0.00,,,0.00,,2013-07-02 21:44:00,
2013-07-02 17:11:00,86.0,65.0,-100.00,NNE,26,0.0,2.0,49,0.00,,,0.00,,2013-07-02 22:11:00,
2013-07-02 17:22:00,86.0,65.0,-100.00,NNE,26,0.0,2.0,49,0.00,,,0.00,,2013-07-02 22:22:00,
2013-07-02 17:34:00,86.0,65.0,-100.00,NNE,26,0.0,2.0,49,0.00,,,0.00,,2013-07-02 22:34:00,
2013-07-02 17:43:00,86.0,65.0,-100.00,NNE,26,0.0,2.0,49,0.00,,,0.00,,2013-07-02 22:43:00,
2013-07-02 18:12:00,87.0,60.0,-100.00,ESE,105,2.0,4.0,40,0.00,,,0.00,,2013-07-02 23:12:00,
2013-07-02 18:22:00,87.0,60.0,-100.00,ESE,105,2.0,4.0,40,0.00,,,0.00,,2013-07-02 23:22:00,
2013-07-02 18:33:00,87.0,60.0,-100.00,ESE,105,2.0,4.0,40,0.00,,,0.00,,2013-07-02 23:33:00,
2013-07-02 18:44:00,87.0,60.0,-100.00,ESE,105,2.0,4.0,40,0.00,,,0.00,,2013-07-02 23:44:00,
2013-07-02 19:11:00,81.0,71.0,-100.00,WNW,297,0.0,0.0,71,0.00,,,0.00,,2013-07-03 00:11:00,
2013-07-02 19:22:00,81.0,71.0,-100.00,WNW,297,0.0,0.0,71,0.00,,,0.00,,2013-07-03 00:22:00,
2013-07-02 19:33:00,81.0,71.0,-100.00,WNW,297,0.0,0.0,71,0.00,,,0.00,,2013-07-03 00:33:00,
2013-07-02 19:44:00,81.0,71.0,-100.00,WNW,297,0.0,0.0,71,0.00,,,0.00,,2013-07-03 00:44:00,
2013-07-02 20:11:00,77.0,64.0,-100.00,WNW,297,2.0,5.0,65,0.00,,,0.00,,2013-07-03 01:11:00,
2013-07-02 20:22:00,77.0,64.0,-100.00,WNW,297,2.0,5.0,65,0.00,,,0.00,,2013-07-03 01:22:00,
2013-07-02 20:33:00,77.0,64.0,-100.00,WNW,297,2.0,5.0,65,0.00,,,0.00,,2013-07-03 01:33:00,
2013-07-02 20:42:00,77.0,64.0,-100.00,WNW,297,2.0,5.0,65,0.00,,,0.00,,2013-07-03 01:42:00,
2013-07-02 21:14:00,74.0,65.0,-100.00,NE,50,1.0,4.0,74,0.00,,,0.00,,2013-07-03 02:14:00,
2013-07-02 21:27:00,74.0,65.0,-100.00,NE,50,1.0,4.0,74,0.00,,,0.00,,2013-07-03 02:27:00,
2013-07-02 21:39:00,74.0,65.0,-100.00,NE,50,1.0,4.0,74,0.00,,,0.00,,2013-07-03 02:39:00,
2013-07-02 21:44:00,74.0,65.0,-100.00,NE,50,1.0,4.0,74,0.00,,,0.00,,2013-07-03 02:44:00,
2013-07-02 22:13:00,71.0,66.0,-100.00,West,263,0.0,0.0,83,0.00,,,0.00,,2013-07-03 03:13:00,
2013-07-02 22:25:00,71.0,66.0,-100.00,West,263,0.0,0.0,83,0.00,,,0.00,,2013-07-03 03:25:00,
2013-07-02 22:35:00,71.0,66.0,-100.00,West,263,0.0,0.0,83,0.00,,,0.00,,2013-07-03 03:35:00,
2013-07-02 23:11:00,69.0,66.0,-100.00,South,169,0.0,0.0,91,0.00,,,0.00,,2013-07-03 04:11:00,
2013-07-02 23:22:00,69.0,66.0,-100.00,South,169,0.0,0.0,91,0.00,,,0.00,,2013-07-03 04:22:00,
2013-07-02 23:33:00,69.0,66.0,-100.00,South,169,0.0,0.0,91,0.00,,,0.00,,2013-07-03 04:33:00,
2013-07-02 23:43:00,69.0,66.0,-100.00,South,169,0.0,0.0,91,0.00,,,0.00,,2013-07-03 04:43:00,
2013-07-02 23:46:00,68.0,66.0,-100.00,NW,315,0.0,0.0,93,0.00,,,0.00,,2013-07-03 04:46:00,